Flight Track Log - Related Links

Times and Time Zones

All times are in EDT time to prevent confusion due to time zone crossing. See the SQH87 flight status page for this flight to view local times or setup timezone preferences in your user account.

Time Position Orientation Groundspeed Altitude Reporting Facility
EDT Latitude Longitude Course Direction KTS MPH feet Rate Location/Type
Thu 07:52:54 AM 35.0500 -89.9833 301° West 106 122 900  Level KMEM
Thu 07:53:54 AM 35.0667 -90.0167 301° West 143 165 2,100 1,100 Climbing KMEM
Thu 07:54:54 AM 35.1000 -90.0500 321° Northwest 156 180 3,100 1,330 Climbing KMEM
Thu 07:57:08 AM 35.1031 -90.1439 272° West 139 160 6,400 1,392 Climbing Memphis Center
Thu 07:58:08 AM 35.0844 -90.1897 244° Southwest 139 160 7,600 1,350 Climbing Memphis Center
Thu 07:59:08 AM 35.0614 -90.2175 225° Southwest 134 154 9,100 1,400 Climbing Memphis Center
Thu 08:00:08 AM 35.0553 -90.2581 260° West 122 140 10,400 1,350 Climbing Memphis Center
Thu 08:01:08 AM 35.0450 -90.3014 254° West 129 148 11,800 1,300 Climbing Memphis Center
Thu 08:02:08 AM 35.0367 -90.3444 257° West 129 148 13,000 1,200 Climbing Memphis Center
Thu 08:03:08 AM 35.0283 -90.3900 257° West 134 154 14,200 1,050 Climbing Memphis Center
Thu 08:04:08 AM 35.0178 -90.4408 256° West 147 169 15,100 800 Climbing Memphis Center
Thu 08:05:08 AM 35.0094 -90.4914 259° West 152 175 15,800 400 Climbing Memphis Center
Thu 08:06:08 AM 34.9967 -90.5497 255° West 173 199 15,900 50 Climbing Memphis Center
Thu 08:07:08 AM 34.9861 -90.6131 259° West 186 214 15,900  Level Memphis Center
Thu 08:08:08 AM 34.9756 -90.6714 258° West 198 228 15,900  Level Memphis Center
Thu 08:09:08 AM 34.9608 -90.7372 255° West 198 228 15,900  Level Memphis Center
Thu 08:10:08 AM 34.9503 -90.7978 258° West 198 228 15,900  Level Memphis Center
Thu 08:11:08 AM 34.9375 -90.8636 257° West 204 235 15,900  Level Memphis Center
Thu 08:12:08 AM 34.9247 -90.9294 257° West 199 229 15,900  Level Memphis Center
Thu 08:13:08 AM 34.9097 -90.9953 254° West 205 236 15,900  Level Memphis Center
Thu 08:14:08 AM 34.8992 -91.0558 258° West 200 230 15,900 50 Level Memphis Center
Thu 08:15:08 AM 34.8861 -91.1217 256° West 195 224 16,000 50 Climbing Memphis Center
Thu 08:16:08 AM 34.8733 -91.1797 255° West 181 208 16,000  Level Memphis Center
Thu 08:17:08 AM 34.8625 -91.2328 256° West 176 203 16,000  Level Memphis Center
Thu 08:18:08 AM 34.8517 -91.2908 257° West 176 203 16,000  Level Memphis Center
Thu 08:19:08 AM 34.8408 -91.3489 257° West 176 203 16,000  Level Memphis Center
Thu 08:20:08 AM 34.8297 -91.4044 256° West 176 203 16,000  Level Memphis Center
Thu 08:21:08 AM 34.8189 -91.4650 258° West 181 208 16,000  Level Memphis Center
Thu 08:22:08 AM 34.8058 -91.5231 255° West 181 208 16,000  Level Memphis Center
Thu 08:23:08 AM 34.7950 -91.5811 257° West 181 208 16,000  Level Memphis Center
Thu 08:24:08 AM 34.7839 -91.6314 255° West 181 208 16,000  Level Memphis Center
Thu 08:25:08 AM 34.7728 -91.6894 257° West 181 208 16,000  Level Memphis Center
Thu 08:25:24 AM 34.7664 -91.7072 246° West 174 200 16,000  Level Memphis Center
Thu 08:25:42 AM 34.7619 -91.7247 253° West 174 200 16,000  Level Memphis Center
Thu 08:26:08 AM 34.7617 -91.7500 269° West 176 203 16,000  Level Memphis Center
Thu 08:26:37 AM 34.7511 -91.7750 243° Southwest 174 200 16,000  Level Memphis Center
Thu 08:27:08 AM 34.7486 -91.8053 264° West 176 203 16,000  Level Memphis Center
Thu 08:27:38 AM 34.7419 -91.8356 255° West 176 203 16,000  Level Memphis Center
Thu 08:28:09 AM 34.7353 -91.8658 255° West 181 208 16,000  Level Memphis Center
Thu 08:28:38 AM 34.7267 -91.8986 252° West 183 211 16,000  Level Memphis Center
Thu 08:29:08 AM 34.7242 -91.9264 264° West 186 214 16,000 -492 Level Memphis Center
Thu 08:29:39 AM 34.7156 -91.9589 252° West 188 216 15,500 -1,000 Descending Memphis Center
Thu 08:30:08 AM 34.7131 -91.9892 264° West 186 214 15,000 -1,000 Descending Memphis Center
Thu 08:30:33 AM 34.7022 -92.0167 244° Southwest 196 226 14,600 -1,000 Descending Memphis Center
Thu 08:31:08 AM 34.6997 -92.0469 264° West 186 214 14,000 -1,082 Descending Memphis Center
Thu 08:31:34 AM 34.6911 -92.0697 245° Southwest 154 177 13,500 -1,200 Descending Memphis Center
Thu 08:32:08 AM 34.6864 -92.0972 258° West 174 200 12,800 -1,377 Descending Memphis Center
Thu 08:32:35 AM 34.6819 -92.1250 259° West 174 200 12,100 -1,500 Descending Memphis Center
Thu 08:33:08 AM 34.6772 -92.1578 260° West 174 200 11,300 -1,500 Descending Memphis Center
Thu 08:33:35 AM 34.6686 -92.1878 251° West 184 212 10,600 -1,500 Descending Memphis Center
Thu 08:34:08 AM 34.6639 -92.2181 259° West 179 206 9,800 -1,279 Descending Memphis Center
Thu 08:34:36 AM 34.6572 -92.2431 252° West 175 201 9,300 -900 Descending Memphis Center
Thu 08:35:08 AM 34.6525 -92.2733 259° West 179 206 8,900 -700 Descending Memphis Center
Thu 08:35:36 AM 34.6439 -92.3033 251° West 178 205 8,600 -600 Descending Memphis Center
Thu 08:36:08 AM 34.6411 -92.3361 264° West 184 212 8,300 -590 Descending Memphis Center
Thu 08:36:37 AM 34.6325 -92.3639 249° West 190 219 8,000 -600 Descending Memphis Center
Thu 08:37:08 AM 34.6256 -92.3964 255° West 195 224 7,700 -593 Descending Memphis Center
Thu 08:38:08 AM 34.6142 -92.4592 258° West 195 224 7,100 -600 Descending Memphis Center
Thu 08:39:08 AM 34.6006 -92.5244 256° West 195 224 6,500 -550 Descending Memphis Center
Thu 08:40:08 AM 34.5828 -92.5844 250° West 200 230 6,000 -550 Descending Memphis Center
Thu 08:41:08 AM 34.5589 -92.6444 244° Southwest 200 230 5,400 -550 Descending Memphis Center
Thu 08:42:08 AM 34.5328 -92.6992 240° Southwest 200 230 4,900 -550 Descending Memphis Center
Thu 08:43:08 AM 34.5086 -92.7567 243° Southwest 195 224 4,300 -450 Descending Memphis Center
Thu 08:44:08 AM 34.4825 -92.8164 242° Southwest 195 224 4,000 -150 Descending Memphis Center
Thu 08:45:08 AM 34.4542 -92.8733 239° Southwest 195 224 4,000  Level Memphis Center
Thu 08:46:08 AM 34.4300 -92.9331 244° Southwest 195 224 4,000  Level Memphis Center
Thu 08:47:08 AM 34.4039 -92.9903 241° Southwest 195 224 4,000  Level Memphis Center
Thu 08:48:08 AM 34.3797 -93.0447 242° Southwest 195 224 4,000  Level Memphis Center
Thu 08:49:08 AM 34.3533 -93.0994 240° Southwest 195 224 4,000  Level Memphis Center
Thu 08:50:08 AM 34.3292 -93.1564 243° Southwest 195 224 4,000  Level Memphis Center
Thu 08:51:08 AM 34.3050 -93.2086 241° Southwest 202 232 4,000 -200 Level Memphis Center
Thu 08:52:08 AM 34.3058 -93.2614 271° West 192 221 3,600 -550 Descending Memphis Center
Thu 08:53:08 AM 34.3536 -93.2806 342° North 124 143 2,900 -650 Descending Memphis Center
Thu 08:54:08 AM 34.3811 -93.2614 30° Northeast 120 138 2,300 -600 Descending Memphis Center
Thu 08:56:00 AM 34.4174 -93.1600 54° Northeast  Level FlightAware Approximate

Login

Don't have an account? Register now (free) for customized features, flight alerts, and more!